sensor_id;sensor_type;location;lat;lon;timestamp;P1;durP1;ratioP1;P2;durP2;ratioP2
59223;SDS011;45592;52.094;4.330;2022-07-01T00:01:41;31.45;;;17.25;;
59223;SDS011;45592;52.094;4.330;2022-07-01T00:04:07;26.70;;;16.38;;
59223;SDS011;45592;52.094;4.330;2022-07-01T00:06:33;27.42;;;16.85;;
59223;SDS011;45592;52.094;4.330;2022-07-01T00:08:59;32.55;;;17.88;;
59223;SDS011;45592;52.094;4.330;2022-07-01T00:11:25;34.08;;;19.33;;
59223;SDS011;45592;52.094;4.330;2022-07-01T00:13:50;34.33;;;17.85;;
59223;SDS011;45592;52.094;4.330;2022-07-01T00:16:16;33.25;;;16.90;;
59223;SDS011;45592;52.094;4.330;2022-07-01T00:18:41;34.13;;;18.45;;
59223;SDS011;45592;52.094;4.330;2022-07-01T00:21:06;32.78;;;18.52;;
59223;SDS011;45592;52.094;4.330;2022-07-01T00:23:32;31.55;;;17.63;;
59223;SDS011;45592;52.094;4.330;2022-07-01T00:25:57;34.65;;;19.45;;
59223;SDS011;45592;52.094;4.330;2022-07-01T00:28:23;32.25;;;19.38;;
59223;SDS011;45592;52.094;4.330;2022-07-01T00:30:48;35.90;;;18.45;;
59223;SDS011;45592;52.094;4.330;2022-07-01T00:33:14;36.97;;;18.77;;
59223;SDS011;45592;52.094;4.330;2022-07-01T00:35:39;40.97;;;21.02;;
59223;SDS011;45592;52.094;4.330;2022-07-01T00:38:05;39.88;;;21.65;;
59223;SDS011;45592;52.094;4.330;2022-07-01T00:40:30;33.05;;;19.83;;
59223;SDS011;45592;52.094;4.330;2022-07-01T00:42:56;40.72;;;19.83;;
59223;SDS011;45592;52.094;4.330;2022-07-01T00:45:21;36.67;;;19.00;;
59223;SDS011;45592;52.094;4.330;2022-07-01T00:47:46;35.10;;;18.92;;
59223;SDS011;45592;52.094;4.330;2022-07-01T00:50:13;38.42;;;19.73;;
59223;SDS011;45592;52.094;4.330;2022-07-01T00:52:40;40.80;;;22.10;;
59223;SDS011;45592;52.094;4.330;2022-07-01T00:55:07;33.55;;;18.58;;
59223;SDS011;45592;52.094;4.330;2022-07-01T00:57:35;39.15;;;20.13;;
59223;SDS011;45592;52.094;4.330;2022-07-01T01:00:05;37.75;;;20.27;;
59223;SDS011;45592;52.094;4.330;2022-07-01T01:02:33;40.30;;;21.35;;
59223;SDS011;45592;52.094;4.330;2022-07-01T01:04:59;39.60;;;20.60;;
59223;SDS011;45592;52.094;4.330;2022-07-01T01:07:25;39.00;;;19.63;;
59223;SDS011;45592;52.094;4.330;2022-07-01T01:09:51;40.17;;;20.25;;
59223;SDS011;45592;52.094;4.330;2022-07-01T01:12:17;39.80;;;20.85;;
59223;SDS011;45592;52.094;4.330;2022-07-01T01:14:43;37.63;;;20.45;;
59223;SDS011;45592;52.094;4.330;2022-07-01T01:17:13;36.38;;;19.92;;
59223;SDS011;45592;52.094;4.330;2022-07-01T01:19:40;35.45;;;18.85;;
59223;SDS011;45592;52.094;4.330;2022-07-01T01:22:06;40.15;;;18.98;;
59223;SDS011;45592;52.094;4.330;2022-07-01T01:24:32;34.00;;;19.25;;
59223;SDS011;45592;52.094;4.330;2022-07-01T01:26:57;40.22;;;20.25;;
59223;SDS011;45592;52.094;4.330;2022-07-01T01:29:23;34.08;;;18.30;;
59223;SDS011;45592;52.094;4.330;2022-07-01T01:31:48;29.98;;;16.70;;
59223;SDS011;45592;52.094;4.330;2022-07-01T01:34:14;30.90;;;16.55;;
59223;SDS011;45592;52.094;4.330;2022-07-01T01:36:39;32.17;;;17.33;;
59223;SDS011;45592;52.094;4.330;2022-07-01T01:39:05;35.05;;;17.20;;
59223;SDS011;45592;52.094;4.330;2022-07-01T01:41:42;30.45;;;15.93;;
59223;SDS011;45592;52.094;4.330;2022-07-01T01:44:08;27.15;;;15.30;;
59223;SDS011;45592;52.094;4.330;2022-07-01T01:46:34;28.88;;;15.32;;
59223;SDS011;45592;52.094;4.330;2022-07-01T01:49:00;28.58;;;14.65;;
59223;SDS011;45592;52.094;4.330;2022-07-01T01:51:26;30.80;;;15.50;;
59223;SDS011;45592;52.094;4.330;2022-07-01T01:53:51;25.73;;;14.98;;
59223;SDS011;45592;52.094;4.330;2022-07-01T01:56:17;28.27;;;15.00;;
59223;SDS011;45592;52.094;4.330;2022-07-01T01:58:42;26.20;;;14.05;;
59223;SDS011;45592;52.094;4.330;2022-07-01T02:01:09;28.33;;;15.73;;
59223;SDS011;45592;52.094;4.330;2022-07-01T02:03:35;31.55;;;16.27;;
59223;SDS011;45592;52.094;4.330;2022-07-01T02:06:02;26.08;;;13.43;;
59223;SDS011;45592;52.094;4.330;2022-07-01T02:08:28;30.05;;;13.82;;
59223;SDS011;45592;52.094;4.330;2022-07-01T02:10:53;25.00;;;13.63;;
59223;SDS011;45592;52.094;4.330;2022-07-01T02:13:19;26.02;;;13.48;;
59223;SDS011;45592;52.094;4.330;2022-07-01T02:15:44;23.98;;;13.55;;
59223;SDS011;45592;52.094;4.330;2022-07-01T02:18:09;27.58;;;13.07;;
59223;SDS011;45592;52.094;4.330;2022-07-01T02:20:35;20.55;;;12.15;;
59223;SDS011;45592;52.094;4.330;2022-07-01T02:23:00;22.52;;;12.13;;
59223;SDS011;45592;52.094;4.330;2022-07-01T02:25:25;23.48;;;12.27;;
59223;SDS011;45592;52.094;4.330;2022-07-01T02:27:51;22.73;;;10.95;;
59223;SDS011;45592;52.094;4.330;2022-07-01T02:30:16;21.65;;;11.07;;
59223;SDS011;45592;52.094;4.330;2022-07-01T02:32:41;20.77;;;10.75;;
59223;SDS011;45592;52.094;4.330;2022-07-01T02:35:08;21.05;;;10.45;;
59223;SDS011;45592;52.094;4.330;2022-07-01T02:37:33;21.33;;;9.75;;
59223;SDS011;45592;52.094;4.330;2022-07-01T02:40:00;20.20;;;9.68;;
59223;SDS011;45592;52.094;4.330;2022-07-01T02:42:25;20.27;;;10.07;;
59223;SDS011;45592;52.094;4.330;2022-07-01T02:44:56;20.90;;;9.95;;
59223;SDS011;45592;52.094;4.330;2022-07-01T02:47:22;21.45;;;9.00;;
59223;SDS011;45592;52.094;4.330;2022-07-01T02:49:47;20.00;;;10.10;;
59223;SDS011;45592;52.094;4.330;2022-07-01T02:52:13;23.70;;;9.25;;
59223;SDS011;45592;52.094;4.330;2022-07-01T02:54:40;19.58;;;10.85;;
59223;SDS011;45592;52.094;4.330;2022-07-01T02:57:06;23.25;;;9.57;;
59223;SDS011;45592;52.094;4.330;2022-07-01T02:59:31;15.60;;;9.88;;
59223;SDS011;45592;52.094;4.330;2022-07-01T03:01:56;16.20;;;9.05;;
59223;SDS011;45592;52.094;4.330;2022-07-01T03:04:21;19.15;;;10.40;;
59223;SDS011;45592;52.094;4.330;2022-07-01T03:06:47;20.38;;;9.50;;
59223;SDS011;45592;52.094;4.330;2022-07-01T03:09:12;22.42;;;9.23;;
59223;SDS011;45592;52.094;4.330;2022-07-01T03:11:37;18.38;;;9.68;;
59223;SDS011;45592;52.094;4.330;2022-07-01T03:14:03;19.25;;;9.32;;
59223;SDS011;45592;52.094;4.330;2022-07-01T03:16:28;19.00;;;9.77;;
59223;SDS011;45592;52.094;4.330;2022-07-01T03:18:53;17.77;;;8.73;;
59223;SDS011;45592;52.094;4.330;2022-07-01T03:21:19;18.10;;;9.18;;
59223;SDS011;45592;52.094;4.330;2022-07-01T03:23:44;18.27;;;10.05;;
59223;SDS011;45592;52.094;4.330;2022-07-01T03:26:10;22.17;;;9.70;;
59223;SDS011;45592;52.094;4.330;2022-07-01T03:28:35;17.65;;;9.57;;
59223;SDS011;45592;52.094;4.330;2022-07-01T03:31:00;20.42;;;10.55;;
59223;SDS011;45592;52.094;4.330;2022-07-01T03:33:26;16.70;;;9.65;;
59223;SDS011;45592;52.094;4.330;2022-07-01T03:35:52;18.92;;;9.77;;
59223;SDS011;45592;52.094;4.330;2022-07-01T03:38:17;19.02;;;10.15;;
59223;SDS011;45592;52.094;4.330;2022-07-01T03:40:43;18.17;;;9.38;;
59223;SDS011;45592;52.094;4.330;2022-07-01T03:43:08;19.55;;;9.95;;
59223;SDS011;45592;52.094;4.330;2022-07-01T03:45:34;23.33;;;10.48;;
59223;SDS011;45592;52.094;4.330;2022-07-01T03:48:00;17.23;;;9.88;;
59223;SDS011;45592;52.094;4.330;2022-07-01T03:50:25;18.65;;;10.27;;
59223;SDS011;45592;52.094;4.330;2022-07-01T03:52:51;21.08;;;10.57;;
59223;SDS011;45592;52.094;4.330;2022-07-01T03:55:36;20.83;;;9.95;;
59223;SDS011;45592;52.094;4.330;2022-07-01T03:58:02;19.45;;;10.70;;
59223;SDS011;45592;52.094;4.330;2022-07-01T04:00:27;19.83;;;11.00;;
59223;SDS011;45592;52.094;4.330;2022-07-01T04:02:53;19.00;;;10.75;;
59223;SDS011;45592;52.094;4.330;2022-07-01T04:05:19;24.05;;;10.82;;
59223;SDS011;45592;52.094;4.330;2022-07-01T04:07:44;21.35;;;10.52;;
59223;SDS011;45592;52.094;4.330;2022-07-01T04:10:10;21.48;;;10.80;;
59223;SDS011;45592;52.094;4.330;2022-07-01T04:12:36;19.00;;;10.60;;
59223;SDS011;45592;52.094;4.330;2022-07-01T04:15:02;20.58;;;10.63;;
59223;SDS011;45592;52.094;4.330;2022-07-01T04:17:27;22.90;;;11.82;;
59223;SDS011;45592;52.094;4.330;2022-07-01T04:19:53;17.30;;;10.82;;
59223;SDS011;45592;52.094;4.330;2022-07-01T04:22:21;24.52;;;11.00;;
59223;SDS011;45592;52.094;4.330;2022-07-01T04:24:59;23.27;;;10.57;;
59223;SDS011;45592;52.094;4.330;2022-07-01T04:27:26;19.42;;;10.52;;
59223;SDS011;45592;52.094;4.330;2022-07-01T04:29:51;22.63;;;10.60;;
59223;SDS011;45592;52.094;4.330;2022-07-01T04:32:17;18.17;;;10.45;;
59223;SDS011;45592;52.094;4.330;2022-07-01T04:34:42;23.15;;;11.00;;
59223;SDS011;45592;52.094;4.330;2022-07-01T04:37:07;26.05;;;11.23;;
59223;SDS011;45592;52.094;4.330;2022-07-01T04:39:33;22.67;;;9.68;;
59223;SDS011;45592;52.094;4.330;2022-07-01T04:41:58;24.67;;;10.90;;
59223;SDS011;45592;52.094;4.330;2022-07-01T04:44:27;22.45;;;10.80;;
59223;SDS011;45592;52.094;4.330;2022-07-01T04:46:54;23.33;;;10.90;;
59223;SDS011;45592;52.094;4.330;2022-07-01T04:49:20;22.40;;;11.40;;
59223;SDS011;45592;52.094;4.330;2022-07-01T04:51:46;20.13;;;9.63;;
59223;SDS011;45592;52.094;4.330;2022-07-01T04:54:11;19.55;;;9.25;;
59223;SDS011;45592;52.094;4.330;2022-07-01T04:56:37;20.48;;;9.27;;
59223;SDS011;45592;52.094;4.330;2022-07-01T04:59:03;23.08;;;9.77;;
59223;SDS011;45592;52.094;4.330;2022-07-01T05:01:29;22.58;;;10.43;;
59223;SDS011;45592;52.094;4.330;2022-07-01T05:03:56;20.23;;;10.93;;
59223;SDS011;45592;52.094;4.330;2022-07-01T05:06:22;21.30;;;9.85;;
59223;SDS011;45592;52.094;4.330;2022-07-01T05:08:48;16.88;;;9.82;;
59223;SDS011;45592;52.094;4.330;2022-07-01T05:11:13;28.45;;;10.57;;
59223;SDS011;45592;52.094;4.330;2022-07-01T05:13:38;23.50;;;10.20;;
59223;SDS011;45592;52.094;4.330;2022-07-01T05:16:04;22.17;;;10.07;;
59223;SDS011;45592;52.094;4.330;2022-07-01T05:18:34;20.23;;;8.98;;
59223;SDS011;45592;52.094;4.330;2022-07-01T05:21:18;20.40;;;10.23;;
59223;SDS011;45592;52.094;4.330;2022-07-01T05:26:28;17.50;;;8.82;;
59223;SDS011;45592;52.094;4.330;2022-07-01T05:28:53;21.90;;;9.93;;
59223;SDS011;45592;52.094;4.330;2022-07-01T05:31:19;21.65;;;9.55;;
59223;SDS011;45592;52.094;4.330;2022-07-01T05:33:45;21.15;;;9.95;;
59223;SDS011;45592;52.094;4.330;2022-07-01T05:36:12;21.42;;;8.98;;
59223;SDS011;45592;52.094;4.330;2022-07-01T05:38:37;17.88;;;8.35;;
59223;SDS011;45592;52.094;4.330;2022-07-01T05:41:02;20.48;;;8.88;;
59223;SDS011;45592;52.094;4.330;2022-07-01T05:43:28;19.48;;;8.20;;
59223;SDS011;45592;52.094;4.330;2022-07-01T05:45:54;17.80;;;7.93;;
59223;SDS011;45592;52.094;4.330;2022-07-01T05:48:20;15.82;;;7.78;;
59223;SDS011;45592;52.094;4.330;2022-07-01T05:50:45;20.10;;;8.70;;
59223;SDS011;45592;52.094;4.330;2022-07-01T05:53:12;13.25;;;6.80;;
59223;SDS011;45592;52.094;4.330;2022-07-01T05:55:37;14.75;;;6.45;;
59223;SDS011;45592;52.094;4.330;2022-07-01T05:58:03;14.30;;;7.07;;
59223;SDS011;45592;52.094;4.330;2022-07-01T06:00:28;13.13;;;6.53;;
59223;SDS011;45592;52.094;4.330;2022-07-01T06:02:53;14.10;;;6.53;;
59223;SDS011;45592;52.094;4.330;2022-07-01T06:05:21;20.35;;;7.50;;
59223;SDS011;45592;52.094;4.330;2022-07-01T06:07:46;15.95;;;6.53;;
59223;SDS011;45592;52.094;4.330;2022-07-01T06:10:12;13.00;;;6.00;;
59223;SDS011;45592;52.094;4.330;2022-07-01T06:12:37;19.33;;;6.65;;
59223;SDS011;45592;52.094;4.330;2022-07-01T06:15:04;15.65;;;6.57;;
59223;SDS011;45592;52.094;4.330;2022-07-01T06:17:32;15.73;;;5.95;;
59223;SDS011;45592;52.094;4.330;2022-07-01T06:19:58;12.52;;;5.55;;
59223;SDS011;45592;52.094;4.330;2022-07-01T06:22:23;17.90;;;6.00;;
59223;SDS011;45592;52.094;4.330;2022-07-01T06:24:48;14.05;;;5.55;;
59223;SDS011;45592;52.094;4.330;2022-07-01T06:27:14;16.63;;;5.95;;
59223;SDS011;45592;52.094;4.330;2022-07-01T06:29:39;12.85;;;5.82;;
59223;SDS011;45592;52.094;4.330;2022-07-01T06:32:05;18.52;;;5.97;;
59223;SDS011;45592;52.094;4.330;2022-07-01T06:34:31;15.80;;;5.88;;
59223;SDS011;45592;52.094;4.330;2022-07-01T06:36:56;16.40;;;5.45;;
59223;SDS011;45592;52.094;4.330;2022-07-01T06:39:25;13.63;;;5.95;;
59223;SDS011;45592;52.094;4.330;2022-07-01T06:41:51;12.13;;;5.20;;
59223;SDS011;45592;52.094;4.330;2022-07-01T06:44:16;10.82;;;4.55;;
59223;SDS011;45592;52.094;4.330;2022-07-01T06:46:42;14.18;;;5.30;;
59223;SDS011;45592;52.094;4.330;2022-07-01T06:49:07;14.93;;;5.38;;
59223;SDS011;45592;52.094;4.330;2022-07-01T06:51:33;12.02;;;4.80;;
59223;SDS011;45592;52.094;4.330;2022-07-01T06:53:58;12.57;;;4.90;;
59223;SDS011;45592;52.094;4.330;2022-07-01T06:56:24;11.43;;;4.00;;
59223;SDS011;45592;52.094;4.330;2022-07-01T06:58:49;10.52;;;4.40;;
59223;SDS011;45592;52.094;4.330;2022-07-01T07:01:15;10.98;;;4.50;;
59223;SDS011;45592;52.094;4.330;2022-07-01T07:03:40;11.57;;;4.35;;
59223;SDS011;45592;52.094;4.330;2022-07-01T07:06:05;10.95;;;3.42;;
59223;SDS011;45592;52.094;4.330;2022-07-01T07:08:31;12.52;;;4.03;;
59223;SDS011;45592;52.094;4.330;2022-07-01T07:10:57;10.07;;;4.38;;
59223;SDS011;45592;52.094;4.330;2022-07-01T07:13:24;10.85;;;3.92;;
59223;SDS011;45592;52.094;4.330;2022-07-01T07:15:50;10.65;;;4.45;;
59223;SDS011;45592;52.094;4.330;2022-07-01T07:18:16;11.18;;;4.35;;
59223;SDS011;45592;52.094;4.330;2022-07-01T07:20:41;13.55;;;4.55;;
59223;SDS011;45592;52.094;4.330;2022-07-01T07:23:07;11.75;;;4.30;;
59223;SDS011;45592;52.094;4.330;2022-07-01T07:25:33;12.27;;;4.25;;
59223;SDS011;45592;52.094;4.330;2022-07-01T07:27:59;9.68;;;3.40;;
59223;SDS011;45592;52.094;4.330;2022-07-01T07:30:24;10.93;;;3.33;;
59223;SDS011;45592;52.094;4.330;2022-07-01T07:32:49;8.90;;;2.80;;
59223;SDS011;45592;52.094;4.330;2022-07-01T07:35:15;9.88;;;3.42;;
59223;SDS011;45592;52.094;4.330;2022-07-01T07:37:41;10.32;;;2.78;;
59223;SDS011;45592;52.094;4.330;2022-07-01T07:40:07;6.22;;;2.75;;
59223;SDS011;45592;52.094;4.330;2022-07-01T07:42:35;26.75;;;3.85;;
59223;SDS011;45592;52.094;4.330;2022-07-01T07:45:01;13.25;;;3.00;;
59223;SDS011;45592;52.094;4.330;2022-07-01T07:47:27;11.82;;;3.47;;
59223;SDS011;45592;52.094;4.330;2022-07-01T07:49:52;16.33;;;4.18;;
59223;SDS011;45592;52.094;4.330;2022-07-01T07:52:18;12.60;;;4.13;;
59223;SDS011;45592;52.094;4.330;2022-07-01T07:54:43;11.07;;;4.07;;
59223;SDS011;45592;52.094;4.330;2022-07-01T07:57:08;13.30;;;4.07;;
59223;SDS011;45592;52.094;4.330;2022-07-01T07:59:34;14.93;;;4.32;;
59223;SDS011;45592;52.094;4.330;2022-07-01T08:02:00;12.40;;;4.18;;
59223;SDS011;45592;52.094;4.330;2022-07-01T08:04:25;14.07;;;4.68;;
59223;SDS011;45592;52.094;4.330;2022-07-01T08:06:51;14.23;;;5.13;;
59223;SDS011;45592;52.094;4.330;2022-07-01T08:09:16;11.00;;;4.47;;
59223;SDS011;45592;52.094;4.330;2022-07-01T08:11:41;9.80;;;4.40;;
59223;SDS011;45592;52.094;4.330;2022-07-01T08:14:07;11.43;;;4.80;;
59223;SDS011;45592;52.094;4.330;2022-07-01T08:16:32;13.32;;;4.75;;
59223;SDS011;45592;52.094;4.330;2022-07-01T08:18:57;12.40;;;4.60;;
59223;SDS011;45592;52.094;4.330;2022-07-01T08:21:24;10.65;;;3.97;;
59223;SDS011;45592;52.094;4.330;2022-07-01T08:23:49;9.82;;;3.50;;
59223;SDS011;45592;52.094;4.330;2022-07-01T08:26:14;6.07;;;2.90;;
59223;SDS011;45592;52.094;4.330;2022-07-01T08:28:41;9.15;;;4.32;;
59223;SDS011;45592;52.094;4.330;2022-07-01T08:31:07;11.32;;;3.60;;
59223;SDS011;45592;52.094;4.330;2022-07-01T08:33:33;11.13;;;3.20;;
59223;SDS011;45592;52.094;4.330;2022-07-01T08:36:01;13.40;;;3.22;;
59223;SDS011;45592;52.094;4.330;2022-07-01T08:38:26;10.65;;;3.15;;
59223;SDS011;45592;52.094;4.330;2022-07-01T08:40:51;11.00;;;3.20;;
59223;SDS011;45592;52.094;4.330;2022-07-01T08:43:17;9.90;;;3.03;;
59223;SDS011;45592;52.094;4.330;2022-07-01T08:45:42;6.25;;;2.60;;
59223;SDS011;45592;52.094;4.330;2022-07-01T08:48:07;10.65;;;2.67;;
59223;SDS011;45592;52.094;4.330;2022-07-01T08:50:34;9.02;;;2.05;;
59223;SDS011;45592;52.094;4.330;2022-07-01T08:53:01;13.55;;;3.05;;
59223;SDS011;45592;52.094;4.330;2022-07-01T08:55:28;11.48;;;2.35;;
59223;SDS011;45592;52.094;4.330;2022-07-01T08:57:54;9.95;;;2.60;;
59223;SDS011;45592;52.094;4.330;2022-07-01T09:00:19;10.93;;;2.63;;
59223;SDS011;45592;52.094;4.330;2022-07-01T09:05:25;7.20;;;2.53;;
59223;SDS011;45592;52.094;4.330;2022-07-01T09:07:55;13.88;;;2.58;;
59223;SDS011;45592;52.094;4.330;2022-07-01T09:10:22;12.30;;;2.05;;
59223;SDS011;45592;52.094;4.330;2022-07-01T09:12:48;7.78;;;1.95;;
59223;SDS011;45592;52.094;4.330;2022-07-01T09:15:21;12.70;;;2.40;;
59223;SDS011;45592;52.094;4.330;2022-07-01T09:18:02;7.85;;;1.80;;
59223;SDS011;45592;52.094;4.330;2022-07-01T09:20:30;6.22;;;2.08;;
59223;SDS011;45592;52.094;4.330;2022-07-01T09:23:00;4.38;;;1.10;;
59223;SDS011;45592;52.094;4.330;2022-07-01T09:25:27;6.10;;;1.33;;
59223;SDS011;45592;52.094;4.330;2022-07-01T09:28:02;3.25;;;1.15;;
59223;SDS011;45592;52.094;4.330;2022-07-01T09:30:29;5.43;;;1.13;;
59223;SDS011;45592;52.094;4.330;2022-07-01T09:35:51;7.07;;;1.75;;
59223;SDS011;45592;52.094;4.330;2022-07-01T09:38:18;5.65;;;1.33;;
59223;SDS011;45592;52.094;4.330;2022-07-01T09:40:53;6.53;;;1.75;;
59223;SDS011;45592;52.094;4.330;2022-07-01T09:43:21;6.90;;;1.83;;
59223;SDS011;45592;52.094;4.330;2022-07-01T09:50:59;6.93;;;2.78;;
59223;SDS011;45592;52.094;4.330;2022-07-01T09:53:26;9.55;;;2.70;;
59223;SDS011;45592;52.094;4.330;2022-07-01T09:55:51;6.75;;;2.28;;
59223;SDS011;45592;52.094;4.330;2022-07-01T09:58:17;7.15;;;2.58;;
59223;SDS011;45592;52.094;4.330;2022-07-01T10:00:42;7.57;;;2.40;;
59223;SDS011;45592;52.094;4.330;2022-07-01T10:03:09;8.43;;;2.33;;
59223;SDS011;45592;52.094;4.330;2022-07-01T10:05:45;6.05;;;2.22;;
59223;SDS011;45592;52.094;4.330;2022-07-01T10:11:25;8.77;;;2.40;;
59223;SDS011;45592;52.094;4.330;2022-07-01T10:14:16;7.10;;;2.53;;
59223;SDS011;45592;52.094;4.330;2022-07-01T10:16:45;6.97;;;2.42;;
59223;SDS011;45592;52.094;4.330;2022-07-01T10:21:51;7.25;;;2.08;;
59223;SDS011;45592;52.094;4.330;2022-07-01T10:24:19;11.43;;;3.38;;
59223;SDS011;45592;52.094;4.330;2022-07-01T10:26:45;9.48;;;1.98;;
59223;SDS011;45592;52.094;4.330;2022-07-01T10:29:27;8.93;;;1.50;;
59223;SDS011;45592;52.094;4.330;2022-07-01T10:32:07;10.13;;;2.00;;
59223;SDS011;45592;52.094;4.330;2022-07-01T10:34:39;9.80;;;2.08;;
59223;SDS011;45592;52.094;4.330;2022-07-01T10:37:07;7.75;;;1.75;;
59223;SDS011;45592;52.094;4.330;2022-07-01T10:44:58;7.43;;;1.67;;
59223;SDS011;45592;52.094;4.330;2022-07-01T10:47:32;8.55;;;1.95;;
59223;SDS011;45592;52.094;4.330;2022-07-01T10:49:59;9.77;;;2.25;;
59223;SDS011;45592;52.094;4.330;2022-07-01T10:54:59;10.77;;;2.15;;
59223;SDS011;45592;52.094;4.330;2022-07-01T10:57:32;9.80;;;2.15;;
59223;SDS011;45592;52.094;4.330;2022-07-01T11:04:58;8.30;;;1.80;;
59223;SDS011;45592;52.094;4.330;2022-07-01T11:07:38;11.30;;;1.98;;
59223;SDS011;45592;52.094;4.330;2022-07-01T11:10:08;7.30;;;2.22;;
59223;SDS011;45592;52.094;4.330;2022-07-01T11:12:35;9.77;;;1.67;;
59223;SDS011;45592;52.094;4.330;2022-07-01T11:15:02;4.90;;;1.50;;
59223;SDS011;45592;52.094;4.330;2022-07-01T11:17:31;7.63;;;1.50;;
59223;SDS011;45592;52.094;4.330;2022-07-01T11:19:58;6.90;;;1.40;;
59223;SDS011;45592;52.094;4.330;2022-07-01T11:22:30;5.90;;;1.20;;
59223;SDS011;45592;52.094;4.330;2022-07-01T11:24:58;5.25;;;1.10;;
59223;SDS011;45592;52.094;4.330;2022-07-01T11:27:25;4.55;;;1.20;;
59223;SDS011;45592;52.094;4.330;2022-07-01T11:29:52;6.30;;;1.30;;
59223;SDS011;45592;52.094;4.330;2022-07-01T11:34:54;6.28;;;1.23;;
59223;SDS011;45592;52.094;4.330;2022-07-01T11:37:21;8.30;;;1.48;;
59223;SDS011;45592;52.094;4.330;2022-07-01T11:40:06;6.18;;;1.40;;
59223;SDS011;45592;52.094;4.330;2022-07-01T11:42:32;6.10;;;1.63;;
59223;SDS011;45592;52.094;4.330;2022-07-01T11:44:59;7.93;;;1.80;;
59223;SDS011;45592;52.094;4.330;2022-07-01T11:47:25;7.50;;;1.55;;
59223;SDS011;45592;52.094;4.330;2022-07-01T11:49:51;10.70;;;1.70;;
59223;SDS011;45592;52.094;4.330;2022-07-01T11:52:17;9.90;;;1.60;;
59223;SDS011;45592;52.094;4.330;2022-07-01T11:54:44;6.60;;;1.50;;
59223;SDS011;45592;52.094;4.330;2022-07-01T11:57:15;5.28;;;1.20;;
59223;SDS011;45592;52.094;4.330;2022-07-01T11:59:42;9.45;;;1.60;;
59223;SDS011;45592;52.094;4.330;2022-07-01T12:02:09;4.45;;;1.10;;
59223;SDS011;45592;52.094;4.330;2022-07-01T12:04:36;6.00;;;1.15;;
59223;SDS011;45592;52.094;4.330;2022-07-01T12:07:05;6.15;;;1.42;;
59223;SDS011;45592;52.094;4.330;2022-07-01T12:09:31;8.10;;;1.40;;
59223;SDS011;45592;52.094;4.330;2022-07-01T12:11:57;3.83;;;1.38;;
59223;SDS011;45592;52.094;4.330;2022-07-01T12:14:26;8.38;;;1.67;;
59223;SDS011;45592;52.094;4.330;2022-07-01T12:16:56;7.78;;;1.80;;
59223;SDS011;45592;52.094;4.330;2022-07-01T12:19:27;7.45;;;1.70;;
59223;SDS011;45592;52.094;4.330;2022-07-01T12:21:57;6.15;;;1.70;;
59223;SDS011;45592;52.094;4.330;2022-07-01T12:24:24;5.93;;;1.63;;
59223;SDS011;45592;52.094;4.330;2022-07-01T12:27:01;9.32;;;1.40;;
59223;SDS011;45592;52.094;4.330;2022-07-01T12:29:53;6.82;;;1.63;;
59223;SDS011;45592;52.094;4.330;2022-07-01T12:32:25;8.55;;;1.50;;
59223;SDS011;45592;52.094;4.330;2022-07-01T12:34:57;8.25;;;2.22;;
59223;SDS011;45592;52.094;4.330;2022-07-01T12:37:30;9.32;;;1.42;;
59223;SDS011;45592;52.094;4.330;2022-07-01T12:40:01;6.55;;;1.48;;
59223;SDS011;45592;52.094;4.330;2022-07-01T12:42:30;7.68;;;1.42;;
59223;SDS011;45592;52.094;4.330;2022-07-01T12:45:00;10.90;;;1.40;;
59223;SDS011;45592;52.094;4.330;2022-07-01T12:50:10;6.28;;;2.25;;
59223;SDS011;45592;52.094;4.330;2022-07-01T12:52:38;6.40;;;1.10;;
59223;SDS011;45592;52.094;4.330;2022-07-01T12:55:16;6.32;;;1.25;;
59223;SDS011;45592;52.094;4.330;2022-07-01T12:57:46;8.23;;;1.60;;
59223;SDS011;45592;52.094;4.330;2022-07-01T13:00:13;6.97;;;1.50;;
59223;SDS011;45592;52.094;4.330;2022-07-01T13:02:39;8.38;;;1.30;;
59223;SDS011;45592;52.094;4.330;2022-07-01T13:05:05;7.40;;;1.30;;
59223;SDS011;45592;52.094;4.330;2022-07-01T13:07:30;5.25;;;0.93;;
59223;SDS011;45592;52.094;4.330;2022-07-01T13:09:56;5.72;;;1.10;;
59223;SDS011;45592;52.094;4.330;2022-07-01T13:12:21;5.32;;;1.40;;
59223;SDS011;45592;52.094;4.330;2022-07-01T13:14:46;6.00;;;1.35;;
59223;SDS011;45592;52.094;4.330;2022-07-01T13:17:12;4.97;;;1.13;;
59223;SDS011;45592;52.094;4.330;2022-07-01T13:19:37;11.25;;;1.85;;
59223;SDS011;45592;52.094;4.330;2022-07-01T13:22:03;5.55;;;1.20;;
59223;SDS011;45592;52.094;4.330;2022-07-01T13:24:29;8.13;;;1.45;;
59223;SDS011;45592;52.094;4.330;2022-07-01T13:26:54;3.28;;;0.85;;
59223;SDS011;45592;52.094;4.330;2022-07-01T13:29:20;8.77;;;1.52;;
59223;SDS011;45592;52.094;4.330;2022-07-01T13:31:45;5.50;;;1.42;;
59223;SDS011;45592;52.094;4.330;2022-07-01T13:34:10;6.38;;;1.20;;
59223;SDS011;45592;52.094;4.330;2022-07-01T13:36:36;9.65;;;1.20;;
59223;SDS011;45592;52.094;4.330;2022-07-01T13:39:01;6.43;;;1.48;;
59223;SDS011;45592;52.094;4.330;2022-07-01T13:41:27;5.82;;;1.30;;
59223;SDS011;45592;52.094;4.330;2022-07-01T13:43:52;6.10;;;1.15;;
59223;SDS011;45592;52.094;4.330;2022-07-01T13:46:17;5.03;;;1.00;;
59223;SDS011;45592;52.094;4.330;2022-07-01T13:48:43;7.78;;;1.27;;
59223;SDS011;45592;52.094;4.330;2022-07-01T13:51:08;6.35;;;1.30;;
59223;SDS011;45592;52.094;4.330;2022-07-01T13:53:33;7.45;;;1.38;;
59223;SDS011;45592;52.094;4.330;2022-07-01T13:55:59;8.05;;;1.60;;
59223;SDS011;45592;52.094;4.330;2022-07-01T13:58:24;6.13;;;1.10;;
59223;SDS011;45592;52.094;4.330;2022-07-01T14:00:49;7.03;;;1.42;;
59223;SDS011;45592;52.094;4.330;2022-07-01T14:03:15;8.77;;;1.33;;
59223;SDS011;45592;52.094;4.330;2022-07-01T14:05:40;6.55;;;1.13;;
59223;SDS011;45592;52.094;4.330;2022-07-01T14:08:05;7.35;;;1.30;;
59223;SDS011;45592;52.094;4.330;2022-07-01T14:10:31;7.65;;;1.20;;
59223;SDS011;45592;52.094;4.330;2022-07-01T14:12:59;8.48;;;1.55;;
59223;SDS011;45592;52.094;4.330;2022-07-01T14:15:25;6.72;;;1.40;;
59223;SDS011;45592;52.094;4.330;2022-07-01T14:17:50;7.47;;;1.10;;
59223;SDS011;45592;52.094;4.330;2022-07-01T14:20:15;4.35;;;1.10;;
59223;SDS011;45592;52.094;4.330;2022-07-01T14:22:41;5.18;;;1.20;;
59223;SDS011;45592;52.094;4.330;2022-07-01T14:25:06;3.58;;;0.90;;
59223;SDS011;45592;52.094;4.330;2022-07-01T14:27:32;5.38;;;0.90;;
59223;SDS011;45592;52.094;4.330;2022-07-01T14:29:57;9.40;;;1.20;;
59223;SDS011;45592;52.094;4.330;2022-07-01T14:32:23;3.50;;;1.00;;
59223;SDS011;45592;52.094;4.330;2022-07-01T14:34:52;6.85;;;1.40;;
59223;SDS011;45592;52.094;4.330;2022-07-01T14:37:19;5.70;;;1.00;;
59223;SDS011;45592;52.094;4.330;2022-07-01T14:39:44;4.07;;;1.00;;
59223;SDS011;45592;52.094;4.330;2022-07-01T14:42:09;7.32;;;1.50;;
59223;SDS011;45592;52.094;4.330;2022-07-01T14:44:35;4.43;;;1.00;;
59223;SDS011;45592;52.094;4.330;2022-07-01T14:47:01;3.95;;;1.40;;
59223;SDS011;45592;52.094;4.330;2022-07-01T14:49:27;8.52;;;1.40;;
59223;SDS011;45592;52.094;4.330;2022-07-01T14:51:52;7.30;;;1.30;;
59223;SDS011;45592;52.094;4.330;2022-07-01T14:54:18;7.30;;;1.33;;
59223;SDS011;45592;52.094;4.330;2022-07-01T14:56:43;6.07;;;1.13;;
59223;SDS011;45592;52.094;4.330;2022-07-01T14:59:08;3.42;;;1.10;;
59223;SDS011;45592;52.094;4.330;2022-07-01T15:01:34;6.35;;;1.23;;
59223;SDS011;45592;52.094;4.330;2022-07-01T15:03:59;7.55;;;1.23;;
59223;SDS011;45592;52.094;4.330;2022-07-01T15:06:25;3.42;;;0.95;;
59223;SDS011;45592;52.094;4.330;2022-07-01T15:08:51;3.95;;;1.10;;
59223;SDS011;45592;52.094;4.330;2022-07-01T15:11:16;4.35;;;1.10;;